Time;durP1;ratioP1;P1;durP2;ratioP2;P2;SDS_P1;SDS_P2;PMS_P1;PMS_P2;Temp;Humidity;BMP_temperature;BMP_pressure;BME280_temperature;BME280_humidity;BME280_pressure;Samples;Min_cycle;Max_cycle;Signal;HPM_P1;HPM_P2
2023/03/10 00:01:21;;;;;;;1.70;1.50;;;;;;;2.05;93.03;98138.48;106960;1258;60546;-81
2023/03/10 00:03:50;;;;;;;1.80;1.70;;;;;;;1.98;92.82;98149.34;107352;1253;60550;-83
2023/03/10 00:06:21;;;;;;;1.60;1.50;;;;;;;1.92;93.26;98157.41;106572;1258;74833;-82
2023/03/10 00:08:51;;;;;;;1.10;1.00;;;;;;;2.02;93.21;98167.80;106395;1253;70113;-80
2023/03/10 00:11:20;;;;;;;1.70;1.40;;;;;;;2.09;92.94;98164.79;106148;1253;72884;-80
2023/03/10 00:13:49;;;;;;;1.60;1.40;;;;;;;2.03;92.84;98165.94;105916;1253;61246;-76
2023/03/10 00:16:20;;;;;;;1.70;1.50;;;;;;;1.94;92.92;98163.58;105836;1256;60452;-78
2023/03/10 00:18:52;;;;;;;1.70;1.40;;;;;;;1.89;93.35;98158.23;105894;1256;74931;-74
2023/03/10 00:21:23;;;;;;;1.70;1.30;;;;;;;1.98;93.07;98157.74;105762;1253;71508;-76
2023/03/10 00:23:54;;;;;;;1.40;1.30;;;;;;;2.01;92.76;98149.61;105809;1253;73258;-74
2023/03/10 00:26:26;;;;;;;1.70;1.60;;;;;;;1.96;93.00;98150.10;106207;1252;60991;-76
2023/03/10 00:28:54;;;;;;;2.30;2.10;;;;;;;1.88;92.97;98165.38;108260;1253;60282;-75
2023/03/10 00:31:25;;;;;;;2.10;1.70;;;;;;;1.84;93.15;98173.11;107680;1253;72880;-76
2023/03/10 00:33:54;;;;;;;3.10;2.30;;;;;;;1.94;93.06;98177.69;105973;1253;70864;-75
2023/03/10 00:36:26;;;;;;;6.70;5.40;;;;;;;2.02;92.72;98184.10;105824;1253;72373;-76
2023/03/10 00:38:56;;;;;;;7.20;6.40;;;;;;;1.94;92.22;98189.51;105732;1253;61471;-76
2023/03/10 00:41:34;;;;;;;10.60;8.80;;;;;;;1.83;92.08;98194.52;105788;1253;60442;-75
2023/03/10 00:44:02;;;;;;;10.50;8.60;;;;;;;1.76;92.58;98209.09;106177;1253;72521;-75
2023/03/10 00:46:35;;;;;;;6.30;5.20;;;;;;;1.81;92.21;98226.30;105667;1253;69573;-76
2023/03/10 00:49:07;;;;;;;4.50;4.10;;;;;;;1.78;91.93;98235.12;105822;1253;72976;-77
2023/03/10 00:51:35;;;;;;;7.00;6.10;;;;;;;1.61;91.73;98242.70;105962;1253;60509;-75
2023/03/10 00:54:05;;;;;;;8.60;7.20;;;;;;;1.45;92.11;98250.76;105822;1256;61549;-74
2023/03/10 00:56:35;;;;;;;17.20;13.60;;;;;;;1.43;92.07;98259.98;105777;1259;73409;-74
2023/03/10 00:59:05;;;;;;;21.10;17.50;;;;;;;1.41;91.96;98268.89;106114;1254;69718;-75
2023/03/10 01:01:38;;;;;;;12.90;11.20;;;;;;;1.28;92.42;98266.39;105980;1258;74716;-75
2023/03/10 01:04:12;;;;;;;21.10;17.30;;;;;;;1.23;92.81;98276.27;106173;1255;60430;-75
2023/03/10 01:06:43;;;;;;;17.20;14.10;;;;;;;1.20;93.42;98278.87;106365;1253;60434;-75
2023/03/10 01:09:12;;;;;;;8.20;6.80;;;;;;;1.21;93.48;98284.35;105919;1253;72656;-75
2023/03/10 01:11:41;;;;;;;6.40;4.00;;;;;;;1.32;93.48;98291.34;105880;1253;69617;-75
2023/03/10 01:14:12;;;;;;;3.90;2.90;;;;;;;1.38;93.35;98300.12;105871;1253;72897;-72
2023/03/10 01:16:41;;;;;;;2.80;2.00;;;;;;;1.37;93.55;98307.90;105907;1253;60354;-74
2023/03/10 01:19:09;;;;;;;3.80;2.30;;;;;;;1.34;93.71;98313.59;105935;1253;60364;-76
2023/03/10 01:21:37;;;;;;;3.40;2.50;;;;;;;1.31;93.60;98321.77;107445;1253;74846;-75
2023/03/10 01:24:06;;;;;;;2.60;2.00;;;;;;;1.39;93.08;98335.86;108152;1253;70252;-75
2023/03/10 01:26:34;;;;;;;2.90;2.00;;;;;;;1.44;92.48;98342.03;106976;1253;72396;-78
2023/03/10 01:29:04;;;;;;;2.20;1.80;;;;;;;1.37;92.55;98339.52;107452;1253;60731;-76
2023/03/10 01:31:33;;;;;;;2.90;2.40;;;;;;;1.29;92.84;98336.29;106430;1252;60906;-75
2023/03/10 01:34:02;;;;;;;4.50;2.60;;;;;;;1.25;93.06;98334.21;105651;1253;74037;-76
2023/03/10 01:36:31;;;;;;;3.50;2.10;;;;;;;1.26;92.91;98339.16;105912;1251;70194;-77
2023/03/10 01:38:59;;;;;;;2.10;1.60;;;;;;;1.33;92.55;98339.55;105960;1251;73850;-76
2023/03/10 01:41:27;;;;;;;2.90;1.70;;;;;;;1.32;92.56;98351.27;105940;1253;60445;-76
2023/03/10 01:43:56;;;;;;;6.40;4.30;;;;;;;1.24;92.28;98358.50;106053;1253;60410;-77
2023/03/10 01:46:36;;;;;;;5.00;2.50;;;;;;;1.15;92.15;98358.27;105810;1258;73980;-75
2023/03/10 01:49:19;;;;;;;2.30;1.60;;;;;;;1.06;91.91;98359.67;105908;1253;69745;-76
2023/03/10 01:52:00;;;;;;;2.30;1.20;;;;;;;1.08;91.49;98361.57;105900;1253;74032;-77
2023/03/10 01:54:35;;;;;;;3.70;1.50;;;;;;;1.12;91.72;98363.67;105968;1253;60509;-75
2023/03/10 01:57:05;;;;;;;2.40;1.60;;;;;;;1.09;92.01;98370.93;106009;1253;60593;-82
2023/03/10 01:59:33;;;;;;;3.80;2.20;;;;;;;1.07;92.39;98373.94;105935;1259;74816;-80
2023/03/10 02:02:01;;;;;;;2.00;1.50;;;;;;;1.05;92.31;98380.48;105844;1253;71498;-75
2023/03/10 02:04:34;;;;;;;2.90;1.30;;;;;;;1.09;91.58;98388.66;106354;1258;72779;-76
2023/03/10 02:07:08;;;;;;;2.20;1.30;;;;;;;1.11;91.19;98397.90;108076;1252;58937;-75
2023/03/10 02:09:40;;;;;;;1.90;1.50;;;;;;;1.06;91.66;98408.98;106025;1253;60560;-79
2023/03/10 02:12:08;;;;;;;3.60;1.90;;;;;;;1.04;92.20;98421.27;105828;1254;73232;-75
2023/03/10 02:14:39;;;;;;;3.80;2.50;;;;;;;1.02;92.27;98429.61;106170;1253;69291;-78
2023/03/10 02:17:09;;;;;;;2.20;1.80;;;;;;;1.04;92.72;98435.70;107712;1253;72676;-75
2023/03/10 02:19:57;;;;;;;2.70;1.50;;;;;;;1.17;92.25;98443.08;107317;1252;60506;-78
2023/03/10 02:22:26;;;;;;;3.90;2.20;;;;;;;1.22;91.70;98460.63;106118;1254;60508;-76
2023/03/10 02:25:06;;;;;;;3.10;2.00;;;;;;;1.15;91.72;98465.22;106006;1253;72738;-75
2023/03/10 02:27:36;;;;;;;3.50;2.10;;;;;;;1.08;92.06;98473.05;106015;1253;69334;-74
2023/03/10 02:30:13;;;;;;;2.30;1.60;;;;;;;1.07;92.65;98475.39;105860;1258;72779;-76
2023/03/10 02:32:46;;;;;;;2.50;1.80;;;;;;;1.19;92.70;98479.54;106266;1252;60457;-77
2023/03/10 02:35:14;;;;;;;2.30;1.50;;;;;;;1.24;91.97;98482.32;105682;1256;60706;-79
2023/03/10 02:37:49;;;;;;;2.20;1.70;;;;;;;1.20;91.96;98482.23;105878;1253;72951;-76
2023/03/10 02:40:48;;;;;;;1.80;1.50;;;;;;;1.14;91.89;98482.56;106002;1253;70560;-76
2023/03/10 02:43:31;;;;;;;1.90;1.50;;;;;;;1.14;92.30;98490.74;105994;1253;72868;-76
2023/03/10 02:46:19;;;;;;;3.20;1.50;;;;;;;1.29;91.83;98496.00;105991;1253;60435;-75
2023/03/10 02:48:53;;;;;;;2.30;1.50;;;;;;;1.32;91.71;98498.40;105872;1255;60422;-74
2023/03/10 02:51:29;;;;;;;4.70;1.30;;;;;;;1.22;90.87;98490.38;105964;1257;71917;-77
2023/03/10 02:54:00;;;;;;;2.20;1.80;;;;;;;1.10;91.25;98484.36;105660;1258;68403;-75
2023/03/10 02:56:33;;;;;;;3.30;1.10;;;;;;;1.06;92.11;98485.02;105582;1260;71952;-75
2023/03/10 02:59:02;;;;;;;1.20;1.10;;;;;;;1.15;91.92;98492.20;105917;1253;61120;-75
2023/03/10 03:01:32;;;;;;;1.50;1.10;;;;;;;1.19;91.63;98498.15;106064;1252;60651;-74
2023/03/10 03:04:01;;;;;;;2.30;1.40;;;;;;;1.14;91.52;98505.79;106297;1253;73996;-76
2023/03/10 03:06:31;;;;;;;3.80;1.50;;;;;;;1.05;90.92;98504.35;108726;1253;69189;-79
2023/03/10 03:09:02;;;;;;;1.70;1.20;;;;;;;0.98;90.71;98503.33;107413;1253;71905;-78
2023/03/10 03:11:35;;;;;;;2.30;1.00;;;;;;;1.00;89.82;98514.38;107615;1253;61183;-79
2023/03/10 03:14:05;;;;;;;3.00;1.50;;;;;;;1.03;89.82;98523.10;107673;1253;60300;-79
2023/03/10 03:16:33;;;;;;;3.30;1.50;;;;;;;0.95;89.33;98526.95;106069;1257;73173;-76
2023/03/10 03:19:04;;;;;;;2.40;1.50;;;;;;;0.87;90.05;98532.98;106037;1253;70666;-76
2023/03/10 03:21:36;;;;;;;3.00;1.90;;;;;;;0.85;90.44;98535.59;106167;1253;72269;-75
2023/03/10 03:24:05;;;;;;;3.80;2.70;;;;;;;0.92;90.01;98543.27;105906;1255;62128;-74
2023/03/10 03:26:33;;;;;;;3.70;3.30;;;;;;;0.96;89.61;98553.56;105821;1253;60514;-76
2023/03/10 03:29:10;;;;;;;5.90;3.50;;;;;;;0.92;89.65;98558.16;105938;1253;74856;-76
2023/03/10 03:31:40;;;;;;;3.20;2.50;;;;;;;0.83;89.48;98566.02;106309;1253;71314;-75
2023/03/10 03:34:20;;;;;;;3.60;2.30;;;;;;;0.76;89.40;98568.55;105950;1253;74357;-75
2023/03/10 03:36:52;;;;;;;5.40;2.50;;;;;;;0.81;88.93;98569.77;106122;1253;60808;-75
2023/03/10 03:39:24;;;;;;;2.40;1.90;;;;;;;0.82;88.99;98569.85;106127;1253;174280;-73
2023/03/10 03:44:21;;;;;;;3.50;2.70;;;;;;;0.67;88.31;98578.75;102510;1293;599843;-76
2023/03/10 03:46:52;;;;;;;3.90;2.70;;;;;;;0.57;88.92;98587.06;105615;1263;59461;-74
2023/03/10 03:49:21;;;;;;;4.20;3.00;;;;;;;0.56;89.10;98588.60;105627;1259;61421;-75
2023/03/10 03:51:53;;;;;;;4.20;2.40;;;;;;;0.64;88.71;98590.50;105462;1263;73060;-75
2023/03/10 03:54:23;;;;;;;3.20;2.40;;;;;;;0.70;88.59;98585.45;105515;1260;71620;-75
2023/03/10 03:56:51;;;;;;;2.70;2.20;;;;;;;0.65;88.35;98591.13;105395;1264;144543;-77
2023/03/10 03:59:19;;;;;;;3.50;2.70;;;;;;;0.56;88.78;98589.78;105674;1256;59270;-75
2023/03/10 04:01:48;;;;;;;2.90;2.00;;;;;;;0.51;88.66;98600.50;105641;1259;60305;-77
2023/03/10 04:04:16;;;;;;;3.00;1.80;;;;;;;0.51;88.32;98609.11;107128;1256;72794;-75
2023/03/10 04:06:44;;;;;;;3.90;2.30;;;;;;;0.59;88.13;98607.17;108478;1256;70415;-75
2023/03/10 04:09:12;;;;;;;4.10;2.10;;;;;;;0.59;88.19;98604.32;107662;1255;72654;-77
2023/03/10 04:11:41;;;;;;;3.30;2.00;;;;;;;0.56;88.28;98607.23;108041;1256;59467;-76
2023/03/10 04:14:11;;;;;;;4.50;2.20;;;;;;;0.56;88.68;98607.56;106519;1256;61390;-79
2023/03/10 04:16:39;;;;;;;4.90;2.40;;;;;;;0.58;88.83;98611.25;105909;1256;73206;-78
2023/03/10 04:19:08;;;;;;;4.10;2.70;;;;;;;0.72;88.38;98612.17;106926;1256;70211;-78
2023/03/10 04:21:40;;;;;;;2.90;2.00;;;;;;;0.81;88.07;98616.77;107900;1256;71568;-73
2023/03/10 04:24:08;;;;;;;5.30;2.60;;;;;;;0.81;88.24;98625.67;107875;1255;59503;-78
2023/03/10 04:26:41;;;;;;;5.80;4.00;;;;;;;0.79;88.17;98627.02;107982;1255;59609;-77
2023/03/10 04:29:10;;;;;;;5.00;2.80;;;;;;;0.76;87.98;98624.66;107709;1260;73108;-76
2023/03/10 04:31:41;;;;;;;9.50;5.70;;;;;;;0.73;87.53;98632.30;108731;1254;68959;-77
2023/03/10 04:34:12;;;;;;;3.80;2.00;;;;;;;0.78;86.69;98635.35;108222;1256;71687;-78
2023/03/10 04:36:40;;;;;;;5.10;2.40;;;;;;;0.81;86.76;98641.20;108189;1255;59850;-78
2023/03/10 04:39:08;;;;;;;8.60;6.70;;;;;;;0.81;87.02;98645.55;107087;1260;60315;-74
2023/03/10 04:41:37;;;;;;;8.60;4.70;;;;;;;0.79;87.01;98647.27;107056;1260;74194;-75
2023/03/10 04:44:08;;;;;;;6.50;3.50;;;;;;;0.73;86.73;98648.80;107413;1257;70661;-75
2023/03/10 04:46:57;;;;;;;5.20;4.20;;;;;;;0.68;86.50;98644.21;107434;1257;72607;-77
2023/03/10 04:49:26;;;;;;;4.00;2.70;;;;;;;0.78;86.60;98645.80;106882;1256;60866;-75
2023/03/10 04:51:54;;;;;;;3.80;2.60;;;;;;;0.84;86.44;98643.70;106678;1260;61329;-73
2023/03/10 04:54:23;;;;;;;4.40;3.70;;;;;;;0.79;86.30;98650.94;107081;1256;72126;-74
2023/03/10 04:56:52;;;;;;;5.80;5.20;;;;;;;0.76;86.92;98652.03;107321;1256;71553;-74
2023/03/10 04:59:20;;;;;;;5.60;3.80;;;;;;;0.74;86.90;98648.41;108342;1254;73101;-75
2023/03/10 05:01:50;;;;;;;4.50;2.90;;;;;;;0.85;86.97;98647.30;108396;1253;60507;-74
2023/03/10 05:04:20;;;;;;;5.10;3.10;;;;;;;0.93;86.70;98651.65;108320;1253;60295;-77
2023/03/10 05:06:51;;;;;;;3.80;2.70;;;;;;;0.92;86.57;98652.45;109198;1253;73098;-78
2023/03/10 05:09:24;;;;;;;5.20;3.00;;;;;;;0.88;86.39;98651.17;108821;1253;69265;-77
2023/03/10 05:11:52;;;;;;;4.10;2.80;;;;;;;0.85;86.18;98649.39;108903;1253;71127;-75
2023/03/10 05:14:25;;;;;;;3.80;2.40;;;;;;;0.84;86.57;98650.69;107852;1254;62315;-76
2023/03/10 05:16:54;;;;;;;3.80;2.10;;;;;;;0.96;86.18;98657.69;107335;1256;59644;-75
2023/03/10 05:19:22;;;;;;;4.10;2.80;;;;;;;1.03;85.75;98661.98;107865;1253;73331;-75
2023/03/10 05:21:55;;;;;;;4.50;3.20;;;;;;;0.96;85.50;98654.30;109095;1254;70325;-77
2023/03/10 05:24:23;;;;;;;6.40;3.80;;;;;;;0.93;85.97;98656.69;108977;1253;71076;-77
2023/03/10 05:26:51;;;;;;;5.00;3.00;;;;;;;0.90;85.67;98663.57;108519;1253;58690;-76
2023/03/10 05:29:19;;;;;;;5.80;2.90;;;;;;;0.85;85.49;98669.42;108415;1253;61306;-78
2023/03/10 05:31:52;;;;;;;4.60;3.40;;;;;;;0.90;84.93;98677.49;108241;1253;71788;-76
2023/03/10 05:34:31;;;;;;;6.60;3.50;;;;;;;0.95;85.05;98678.27;107661;1255;71368;-76
2023/03/10 05:37:01;;;;;;;4.70;3.10;;;;;;;0.96;85.60;98684.83;108082;1253;72886;-75
2023/03/10 05:39:30;;;;;;;6.20;4.50;;;;;;;0.99;86.01;98688.13;108002;1257;59648;-74
2023/03/10 05:42:01;;;;;;;6.70;4.50;;;;;;;1.04;86.42;98693.80;107928;1254;59625;-74
2023/03/10 05:44:31;;;;;;;4.20;3.50;;;;;;;1.11;86.54;98693.46;107838;1256;72142;-76
2023/03/10 05:47:00;;;;;;;5.80;3.80;;;;;;;1.26;85.99;98696.89;108035;1253;70115;-76
2023/03/10 05:49:30;;;;;;;7.00;4.50;;;;;;;1.35;85.53;98702.36;107690;1253;72483;-75
2023/03/10 05:51:58;;;;;;;7.20;4.60;;;;;;;1.39;85.93;98705.15;108478;1253;59372;-78
2023/03/10 05:54:28;;;;;;;6.60;4.10;;;;;;;1.44;85.87;98707.73;109115;1253;60500;-77
2023/03/10 05:56:57;;;;;;;5.80;3.40;;;;;;;1.48;85.72;98716.63;109015;1255;71972;-77
2023/03/10 05:59:31;;;;;;;5.70;3.60;;;;;;;1.52;85.58;98717.30;108807;1257;68218;-76
2023/03/10 06:01:59;;;;;;;4.50;3.60;;;;;;;1.66;84.88;98719.06;108812;1254;72471;-77
2023/03/10 06:04:31;;;;;;;5.60;3.80;;;;;;;1.72;84.38;98721.26;108710;1254;59369;-78
2023/03/10 06:07:01;;;;;;;5.80;4.30;;;;;;;1.65;83.71;98723.82;109107;1253;58999;-79
2023/03/10 06:09:38;;;;;;;9.40;5.80;;;;;;;1.57;83.46;98722.32;109505;1253;72841;-80
2023/03/10 06:12:12;;;;;;;12.90;8.80;;;;;;;1.49;83.59;98729.75;109266;1253;69425;-79
2023/03/10 06:14:42;;;;;;;13.50;8.20;;;;;;;1.47;83.79;98738.65;109315;1253;71013;-79
2023/03/10 06:17:10;;;;;;;11.20;6.40;;;;;;;1.59;83.99;98738.14;109357;1253;59601;-78
2023/03/10 06:19:43;;;;;;;7.80;4.90;;;;;;;1.75;84.26;98744.97;109014;1253;59583;-78
2023/03/10 06:22:12;;;;;;;6.60;4.40;;;;;;;1.81;84.25;98751.42;108858;1254;71213;-80
2023/03/10 06:24:44;;;;;;;6.20;3.80;;;;;;;1.81;84.04;98752.30;108881;1253;69490;-78
2023/03/10 06:27:13;;;;;;;9.80;4.80;;;;;;;1.85;84.60;98750.52;108984;1253;71060;-77
2023/03/10 06:29:41;;;;;;;5.80;3.90;;;;;;;1.96;84.63;98757.09;108866;1253;59795;-80
2023/03/10 06:32:10;;;;;;;6.40;4.00;;;;;;;2.13;83.85;98755.90;109105;1253;60347;-79
2023/03/10 06:34:41;;;;;;;5.20;3.80;;;;;;;2.23;83.19;98759.90;108861;1254;72044;-80
2023/03/10 06:37:10;;;;;;;6.50;4.20;;;;;;;2.24;83.39;98753.83;108153;1253;69125;-78
2023/03/10 06:39:38;;;;;;;7.00;3.70;;;;;;;2.24;83.25;98748.76;108076;1254;71751;-79
2023/03/10 06:42:07;;;;;;;5.10;3.70;;;;;;;2.24;83.09;98741.98;108630;1253;59731;-77
2023/03/10 06:44:36;;;;;;;8.90;4.50;;;;;;;2.19;82.68;98742.08;108277;1253;59583;-75
2023/03/10 06:47:05;;;;;;;6.30;3.80;;;;;;;2.17;82.67;98742.46;108763;1253;73144;-77
2023/03/10 06:49:34;;;;;;;6.70;3.60;;;;;;;2.28;82.56;98739.73;108789;1254;69527;-78
2023/03/10 06:52:02;;;;;;;4.90;3.10;;;;;;;2.39;82.32;98734.52;108833;1253;72405;-78
2023/03/10 06:54:33;;;;;;;3.40;2.50;;;;;;;2.41;82.26;98735.58;109455;1253;59225;-77
2023/03/10 06:57:01;;;;;;;5.90;2.90;;;;;;;2.42;81.90;98732.52;109495;1253;59996;-79
2023/03/10 06:59:31;;;;;;;4.20;2.90;;;;;;;2.42;81.83;98732.48;109332;1253;72690;-80
2023/03/10 07:01:59;;;;;;;3.40;2.50;;;;;;;2.38;81.34;98725.88;109221;1255;68908;-76
2023/03/10 07:04:28;;;;;;;4.20;2.40;;;;;;;2.36;81.02;98723.21;109173;1253;70811;-77
2023/03/10 07:06:56;;;;;;;3.00;1.90;;;;;;;2.42;80.34;98729.80;109134;1253;61237;-79
2023/03/10 07:09:24;;;;;;;3.10;2.00;;;;;;;2.46;80.36;98725.26;109017;1253;59944;-76
2023/03/10 07:11:55;;;;;;;4.10;2.00;;;;;;;2.42;80.27;98723.08;109221;1253;70565;-76
2023/03/10 07:14:23;;;;;;;4.30;2.50;;;;;;;2.35;80.24;98730.83;109136;1253;67940;-73
2023/03/10 07:16:52;;;;;;;3.00;2.10;;;;;;;2.31;80.01;98739.23;109069;1253;71519;-76
2023/03/10 07:19:20;;;;;;;2.00;1.80;;;;;;;2.31;80.22;98736.41;108651;1253;59219;-78
2023/03/10 07:21:54;;;;;;;6.30;2.20;;;;;;;2.32;79.82;98743.36;109128;1254;59828;-77
2023/03/10 07:24:22;;;;;;;3.60;2.80;;;;;;;2.44;79.93;98758.66;109206;1253;71161;-78
2023/03/10 07:26:51;;;;;;;2.40;2.10;;;;;;;2.55;79.70;98770.77;109070;1253;69209;-77
2023/03/10 07:29:19;;;;;;;3.10;2.50;;;;;;;2.51;79.27;98771.79;108929;1253;72431;-78
2023/03/10 07:31:47;;;;;;;3.20;2.00;;;;;;;2.45;78.94;98781.31;109108;1253;59287;-76
2023/03/10 07:34:17;;;;;;;2.10;1.70;;;;;;;2.39;78.99;98807.73;108940;1253;61031;-75
2023/03/10 07:36:45;;;;;;;4.20;2.60;;;;;;;2.33;78.55;98826.94;109178;1254;71724;-80
2023/03/10 07:39:13;;;;;;;3.80;2.10;;;;;;;2.33;78.77;98807.70;109359;1253;70343;-79
2023/03/10 07:41:41;;;;;;;3.20;2.70;;;;;;;2.46;79.10;98804.61;109111;1253;72530;-75
2023/03/10 07:44:09;;;;;;;4.00;2.60;;;;;;;2.49;78.99;98821.83;109284;1253;59113;-77
2023/03/10 07:46:38;;;;;;;4.70;3.20;;;;;;;2.51;79.34;98821.30;109358;1254;60178;-74
2023/03/10 07:49:09;;;;;;;2.80;2.50;;;;;;;2.56;80.11;98816.83;109252;1253;71767;-76
2023/03/10 07:51:43;;;;;;;4.20;2.70;;;;;;;2.63;79.98;98813.59;109411;1255;70205;-75
2023/03/10 07:54:12;;;;;;;5.70;2.90;;;;;;;2.69;79.13;98807.98;109277;1254;72613;-78
2023/03/10 07:56:41;;;;;;;3.40;2.50;;;;;;;2.76;78.37;98808.70;109295;1253;59528;-77
2023/03/10 07:59:10;;;;;;;2.70;2.50;;;;;;;2.70;77.96;98814.46;109324;1253;60325;-76
2023/03/10 08:01:42;;;;;;;3.80;2.80;;;;;;;2.61;77.78;98812.56;109395;1253;73802;-76
2023/03/10 08:04:13;;;;;;;3.80;2.90;;;;;;;2.54;78.14;98808.59;109507;1254;70168;-75
2023/03/10 08:06:41;;;;;;;3.20;2.90;;;;;;;2.51;78.11;98819.41;109266;1253;72653;-76
2023/03/10 08:09:10;;;;;;;3.80;3.00;;;;;;;2.50;78.70;98833.96;109406;1254;59797;-76
2023/03/10 08:11:39;;;;;;;4.00;2.90;;;;;;;2.51;78.32;98832.09;109382;1253;59387;-76
2023/03/10 08:14:08;;;;;;;5.90;3.50;;;;;;;2.61;77.21;98821.99;109324;1253;73542;-76
2023/03/10 08:16:57;;;;;;;5.50;3.60;;;;;;;2.57;77.64;98823.02;109266;1256;70153;-75
2023/03/10 08:19:26;;;;;;;4.10;3.60;;;;;;;2.56;78.51;98821.17;109343;1254;71779;-75
2023/03/10 08:21:55;;;;;;;7.00;4.30;;;;;;;2.59;79.14;98824.96;109272;1253;59562;-76
2023/03/10 08:24:26;;;;;;;4.20;3.80;;;;;;;2.69;79.66;98828.63;109336;1253;61144;-75
2023/03/10 08:26:55;;;;;;;4.30;3.60;;;;;;;2.80;79.97;98816.23;109497;1253;73490;-78
2023/03/10 08:29:27;;;;;;;5.00;3.60;;;;;;;2.99;79.43;98815.56;109327;1253;70284;-75
2023/03/10 08:31:55;;;;;;;6.30;3.70;;;;;;;3.15;79.47;98811.89;109387;1253;71441;-76
2023/03/10 08:34:25;;;;;;;4.50;3.70;;;;;;;3.25;79.27;98809.94;109454;1253;60384;-75
2023/03/10 08:37:00;;;;;;;5.10;4.60;;;;;;;3.33;78.90;98803.59;109347;1253;59452;-74
2023/03/10 08:39:29;;;;;;;5.20;4.60;;;;;;;3.40;78.75;98794.39;109339;1253;73375;-76
2023/03/10 08:41:57;;;;;;;7.70;6.50;;;;;;;3.44;77.93;98786.09;109422;1253;69386;-76
2023/03/10 08:44:27;;;;;;;10.00;6.90;;;;;;;3.46;78.01;98775.98;109281;1253;72488;-80
2023/03/10 08:46:58;;;;;;;9.60;7.40;;;;;;;3.52;78.04;98773.60;109254;1253;59878;-78
2023/03/10 08:49:31;;;;;;;8.80;7.00;;;;;;;3.69;77.73;98773.69;109323;1253;59415;-79
2023/03/10 08:52:01;;;;;;;10.00;7.00;;;;;;;3.72;77.20;98777.95;109400;1253;71747;-78
2023/03/10 08:54:29;;;;;;;8.70;7.30;;;;;;;3.64;77.34;98784.51;109335;1253;70045;-81
2023/03/10 08:57:00;;;;;;;7.90;6.70;;;;;;;3.65;77.33;98788.35;109439;1253;72452;-79
2023/03/10 08:59:30;;;;;;;8.40;7.30;;;;;;;3.63;77.14;98798.14;109400;1253;59550;-77
2023/03/10 09:02:04;;;;;;;6.90;6.10;;;;;;;3.61;77.21;98803.54;109347;1254;60154;-77
2023/03/10 09:04:36;;;;;;;7.70;6.60;;;;;;;3.74;77.07;98792.55;109328;1253;71951;-80
2023/03/10 09:07:04;;;;;;;9.50;6.60;;;;;;;3.82;77.19;98794.70;109385;1253;68648;-84
2023/03/10 09:09:33;;;;;;;7.20;6.50;;;;;;;3.90;77.40;98800.60;109329;1254;72633;-77
2023/03/10 09:12:02;;;;;;;9.20;7.00;;;;;;;3.97;77.17;98794.04;106673;1255;60398;-79
2023/03/10 09:14:34;;;;;;;9.80;7.70;;;;;;;3.99;76.42;98782.75;107769;1253;59980;-79
2023/03/10 09:17:03;;;;;;;8.30;7.50;;;;;;;3.99;76.13;98774.84;109394;1254;73902;-79
2023/03/10 09:19:32;;;;;;;8.30;7.20;;;;;;;4.04;75.63;98773.37;109281;1253;69141;-79
2023/03/10 09:22:04;;;;;;;8.40;6.80;;;;;;;4.28;76.63;98779.76;109255;1253;71225;-81
2023/03/10 09:24:33;;;;;;;8.10;7.30;;;;;;;4.59;76.77;98771.30;109445;1253;58964;-80
2023/03/10 09:27:02;;;;;;;9.10;8.20;;;;;;;4.91;76.52;98776.64;109283;1253;59978;-80
2023/03/10 09:29:33;;;;;;;11.50;8.40;;;;;;;5.30;76.07;98783.25;109472;1253;73936;-81
2023/03/10 09:32:10;;;;;;;8.90;7.90;;;;;;;5.70;76.71;98798.16;109360;1254;68517;-79
2023/03/10 09:34:39;;;;;;;8.30;6.40;;;;;;;6.10;76.77;98795.52;109507;1253;72686;-81
2023/03/10 09:37:07;;;;;;;9.20;6.20;;;;;;;6.52;73.66;98797.76;109387;1253;61154;-79
2023/03/10 09:39:37;;;;;;;7.90;7.20;;;;;;;6.68;71.74;98797.49;109445;1253;59704;-78
2023/03/10 09:42:15;;;;;;;10.30;7.60;;;;;;;6.72;72.42;98801.84;109359;1254;75026;-78
2023/03/10 09:45:08;;;;;;;10.50;8.60;;;;;;;6.80;72.00;98804.17;109319;1253;70462;-80
2023/03/10 09:47:41;;;;;;;9.40;8.60;;;;;;;6.85;71.33;98809.59;109412;1253;71699;-80
2023/03/10 09:50:26;;;;;;;9.00;8.10;;;;;;;6.85;71.40;98810.93;109250;1254;59804;-77
2023/03/10 09:52:58;;;;;;;11.40;7.70;;;;;;;6.91;70.40;98802.65;109319;1253;60032;-79
2023/03/10 09:55:39;;;;;;;9.20;8.00;;;;;;;7.08;70.10;98786.70;109443;1253;72856;-78
2023/03/10 09:58:27;;;;;;;9.90;8.90;;;;;;;7.14;68.57;98772.13;109178;1254;70373;-80
2023/03/10 10:00:57;;;;;;;11.10;8.90;;;;;;;7.09;67.83;98748.73;109319;1253;71669;-82
2023/03/10 10:03:42;;;;;;;9.00;8.10;;;;;;;7.00;67.49;98741.14;108856;1253;59384;-80
2023/03/10 10:06:33;;;;;;;9.70;8.80;;;;;;;6.78;67.14;98739.80;109085;1253;58778;-82
2023/03/10 10:09:13;;;;;;;10.00;9.00;;;;;;;6.60;67.45;98744.91;108726;1253;73575;-79
2023/03/10 10:11:42;;;;;;;10.60;9.60;;;;;;;6.43;67.84;98771.60;108830;1253;69274;-81
2023/03/10 10:14:27;;;;;;;15.40;10.40;;;;;;;6.28;68.50;98769.45;108705;1254;71323;-78
2023/03/10 10:17:25;;;;;;;13.00;10.50;;;;;;;6.16;68.35;98763.09;108295;1254;59958;-77
2023/03/10 10:19:59;;;;;;;13.00;11.60;;;;;;;5.95;68.41;98771.36;107743;1257;61098;-79
2023/03/10 10:22:31;;;;;;;12.00;10.20;;;;;;;5.81;69.56;98786.50;108854;1258;72766;-81
2023/03/10 10:25:20;;;;;;;12.20;10.70;;;;;;;5.78;69.27;98790.05;109322;1253;69581;-82
2023/03/10 10:27:56;;;;;;;15.70;10.20;;;;;;;5.78;69.51;98792.73;107203;1256;72409;-79
2023/03/10 10:30:47;;;;;;;12.40;11.10;;;;;;;5.71;69.64;98790.89;106971;1256;60560;-78
2023/03/10 10:33:18;;;;;;;12.50;11.20;;;;;;;5.63;69.93;98772.73;107273;1254;60367;-83
2023/03/10 10:36:09;;;;;;;13.20;11.60;;;;;;;5.58;70.02;98756.98;108068;1254;72917;-82
2023/03/10 10:38:39;;;;;;;14.40;11.90;;;;;;;5.45;68.63;98744.80;108776;1254;70571;-83
2023/03/10 10:41:20;;;;;;;13.80;10.20;;;;;;;5.29;68.75;98741.21;108773;1253;70743;-81
2023/03/10 10:43:58;;;;;;;13.60;11.30;;;;;;;5.18;69.26;98744.92;108838;1253;60178;-81
2023/03/10 10:46:28;;;;;;;15.90;11.40;;;;;;;5.11;69.30;98747.72;109107;1253;60486;-83
2023/03/10 10:49:06;;;;;;;12.30;10.90;;;;;;;5.04;69.77;98752.55;108969;1253;72669;-82
2023/03/10 10:51:41;;;;;;;13.70;10.30;;;;;;;4.94;69.29;98751.39;109187;1253;70438;-82
2023/03/10 10:54:52;;;;;;;13.20;10.10;;;;;;;4.99;69.57;98748.13;109106;1253;72472;-82
2023/03/10 10:57:32;;;;;;;10.70;8.30;;;;;;;4.96;69.73;98745.99;109005;1255;60366;-80
2023/03/10 11:00:27;;;;;;;10.50;7.10;;;;;;;4.91;69.87;98750.79;109189;1253;60168;-82
2023/03/10 11:03:40;;;;;;;10.00;7.60;;;;;;;4.85;69.65;98754.91;109335;1253;76524;-83
2023/03/10 11:06:27;;;;;;;10.20;7.10;;;;;;;4.87;71.11;98757.75;109064;1253;70398;-83
2023/03/10 11:09:17;;;;;;;8.70;6.40;;;;;;;4.94;70.60;98761.92;109348;1253;72448;-84
2023/03/10 11:12:19;;;;;;;10.60;6.90;;;;;;;5.02;71.21;98752.02;109368;1253;59528;-82
2023/03/10 11:15:00;;;;;;;7.20;5.50;;;;;;;5.21;69.77;98757.31;109535;1253;59671;-82
2023/03/10 11:17:32;;;;;;;5.20;4.30;;;;;;;5.30;69.54;98756.89;109426;1253;73861;-82
2023/03/10 11:20:05;;;;;;;8.20;5.70;;;;;;;5.42;69.22;98749.20;109685;1253;69273;-83
2023/03/10 11:22:35;;;;;;;;;;;;;;;5.42;69.94;98739.30;109491;1254;71172;-81
2023/03/10 11:25:35;;;;;;;7.60;5.50;;;;;;;5.42;69.28;98736.84;109500;1253;58758;-82
2023/03/10 11:28:24;;;;;;;6.30;4.90;;;;;;;5.41;69.07;98728.02;109371;1253;60061;-80
2023/03/10 11:31:04;;;;;;;6.50;5.80;;;;;;;5.41;70.02;98729.58;109557;1253;73730;-83
2023/03/10 11:34:07;;;;;;;7.20;6.00;;;;;;;5.47;69.71;98730.19;109520;1253;68899;-83
2023/03/10 11:36:51;;;;;;;8.30;6.20;;;;;;;5.46;69.91;98734.10;109407;1253;71379;-84
2023/03/10 11:39:26;;;;;;;10.20;6.00;;;;;;;5.47;69.61;98735.09;109499;1253;58326;-83
2023/03/10 11:42:11;;;;;;;9.70;6.50;;;;;;;5.42;69.11;98734.38;109511;1253;60293;-81
2023/03/10 11:44:50;;;;;;;;;;;;;;;5.32;69.32;98741.36;109527;1256;74637;-81
2023/03/10 11:47:37;;;;;;;9.30;5.90;;;;;;;5.26;69.83;98744.64;109552;1253;70120;-82
2023/03/10 11:50:48;;;;;;;7.10;5.70;;;;;;;5.40;70.39;98744.04;109495;1254;72081;-83
2023/03/10 11:53:40;;;;;;;6.60;5.10;;;;;;;5.54;68.93;98743.17;109477;1254;60292;-83
2023/03/10 11:56:11;;;;;;;8.60;5.20;;;;;;;5.40;69.28;98734.96;109334;1254;60221;-81
2023/03/10 11:59:07;;;;;;;7.70;6.00;;;;;;;5.27;69.83;98729.77;109454;1255;72056;-79
2023/03/10 12:01:57;;;;;;;8.60;5.60;;;;;;;5.26;69.78;98720.80;109574;1253;70685;-79